Hornblower Hybrid — WDF9693 — position and weather

sailwx.info

Track history (hours):
 
Tides and Currents Weather Stations Pressure Air Temp Water Temp Dewpoint Dewpoint Depression Visibility Wind Speed Wind Dir Waves Ship Positions

Hornblower Hybrid

Owner: Statue Cruises, LLC, JERSEY CITY, NJ. More information available from US FCC via Universal Licensing System and Coast Guard Vessel Documentation Center.

Last reported at 2018-Feb-24 04:55 UTC. Time now 2018-Feb-24 14:01 UTC.
Position N 40°44' W 074°01'.

Length 47 m; draft 3.1 m.

Type: Passenger vessel. MMSI: 367507840.

Date/timePositionNaut miles runAvg speedWind from/ knotsBaromVisibWave heightAir tempDewpointWater temp
2018-Feb-24 04:55N 40°44' W 074°01'1 2.1
2018-Feb-24 04:30N 40°43' W 074°01'2 3.1
2018-Feb-24 04:00N 40°42' W 074°02'3 5.3
2018-Feb-24 03:30N 40°43' W 073°59'1 2.3
2018-Feb-24 03:00N 40°42' W 074°00'2 4.3
2018-Feb-24 02:30N 40°44' W 074°01'2 4.2
2018-Feb-24 02:00N 40°46' W 074°00'1 3.0
2018-Feb-24 01:30N 40°45' W 074°01'1 1.4
2018-Feb-24 00:59N 40°44' W 074°01'0 0.0
2018-Feb-24 00:30N 40°44' W 074°01'  
2018-Feb-18 04:53N 40°44' W 074°01'2 4.8
2018-Feb-18 04:30N 40°42' W 074°00'0 0.7
2018-Feb-18 04:00N 40°42' W 074°00'1 1.7
2018-Feb-18 03:31N 40°42' W 074°01'1 1.6
2018-Feb-18 03:01N 40°42' W 074°02'1 1.6
2018-Feb-18 02:31N 40°42' W 074°01'1 1.4
2018-Feb-18 01:59N 40°42' W 074°00'0 0.0
2018-Feb-18 01:29N 40°42' W 074°00'0 0.0
2018-Feb-18 01:00N 40°42' W 074°00'0 0.5
2018-Feb-18 00:30N 40°42' W 073°60'2 4.3
2018-Feb-18 00:00N 40°41' W 074°02'2 3.1
2018-Feb-17 23:31N 40°43' W 074°01'1 1.7
2018-Feb-17 23:00N 40°42' W 074°00'0 0.0
2018-Feb-17 22:30N 40°42' W 074°00'0 0.5
2018-Feb-17 22:01N 40°42' W 074°00'2 3.6
2018-Feb-17 21:31N 40°44' W 074°01'  
2018-Feb-15 02:46N 40°44' W 074°01'1 2.7
2018-Feb-15 02:30N 40°43' W 074°01'2 3.9
2018-Feb-15 02:00N 40°41' W 074°02'2 3.3
2018-Feb-15 01:30N 40°42' W 074°00'2 4.0
2018-Feb-15 01:00N 40°44' W 074°01'1 2.2
2018-Feb-15 00:30N 40°45' W 074°01'1 2.2
2018-Feb-14 23:59N 40°44' W 074°01'0 0.0
2018-Feb-14 23:29N 40°44' W 074°01'0 0.0
2018-Feb-14 23:00N 40°44' W 074°01'  
Track history (hours):
 
Tides and Currents Weather Stations Pressure Air Temp Water Temp Dewpoint Dewpoint Depression Visibility Wind Speed Wind Dir Waves Ship Positions

Hornblower Hybrid

Owner: Statue Cruises, LLC, JERSEY CITY, NJ. More information available from US FCC via Universal Licensing System and Coast Guard Vessel Documentation Center.

Last reported at 2018-Feb-24 04:55 UTC. Time now 2018-Feb-24 14:01 UTC.
Position N 40°44' W 074°01'.

Length 47 m; draft 3.1 m.

Type: Passenger vessel. MMSI: 367507840.

Date/timePositionNaut miles runAvg speedWind from/ knotsBaromVisibWave heightAir tempDewpointWater temp
2018-Feb-24 04:55N 40°44' W 074°01'1 2.1
2018-Feb-24 04:30N 40°43' W 074°01'2 3.1
2018-Feb-24 04:00N 40°42' W 074°02'3 5.3
2018-Feb-24 03:30N 40°43' W 073°59'1 2.3
2018-Feb-24 03:00N 40°42' W 074°00'2 4.3
2018-Feb-24 02:30N 40°44' W 074°01'2 4.2
2018-Feb-24 02:00N 40°46' W 074°00'1 3.0
2018-Feb-24 01:30N 40°45' W 074°01'1 1.4
2018-Feb-24 00:59N 40°44' W 074°01'0 0.0
2018-Feb-24 00:30N 40°44' W 074°01'  
2018-Feb-18 04:53N 40°44' W 074°01'2 4.8
2018-Feb-18 04:30N 40°42' W 074°00'0 0.7
2018-Feb-18 04:00N 40°42' W 074°00'1 1.7
2018-Feb-18 03:31N 40°42' W 074°01'1 1.6
2018-Feb-18 03:01N 40°42' W 074°02'1 1.6
2018-Feb-18 02:31N 40°42' W 074°01'1 1.4
2018-Feb-18 01:59N 40°42' W 074°00'0 0.0
2018-Feb-18 01:29N 40°42' W 074°00'0 0.0
2018-Feb-18 01:00N 40°42' W 074°00'0 0.5
2018-Feb-18 00:30N 40°42' W 073°60'2 4.3
2018-Feb-18 00:00N 40°41' W 074°02'2 3.1
2018-Feb-17 23:31N 40°43' W 074°01'1 1.7
2018-Feb-17 23:00N 40°42' W 074°00'0 0.0
2018-Feb-17 22:30N 40°42' W 074°00'0 0.5
2018-Feb-17 22:01N 40°42' W 074°00'2 3.6
2018-Feb-17 21:31N 40°44' W 074°01'  
2018-Feb-15 02:46N 40°44' W 074°01'1 2.7
2018-Feb-15 02:30N 40°43' W 074°01'2 3.9
2018-Feb-15 02:00N 40°41' W 074°02'2 3.3
2018-Feb-15 01:30N 40°42' W 074°00'2 4.0
2018-Feb-15 01:00N 40°44' W 074°01'1 2.2
2018-Feb-15 00:30N 40°45' W 074°01'1 2.2
2018-Feb-14 23:59N 40°44' W 074°01'0 0.0
2018-Feb-14 23:29N 40°44' W 074°01'0 0.0
2018-Feb-14 23:00N 40°44' W 074°01'  

Dump ship's entire track history